createdAt,value
2018-02-15T00:00:12.151Z,30.87
2018-02-15T00:02:39.649Z,30.03
2018-02-15T00:05:07.146Z,32.77
2018-02-15T00:07:34.640Z,30.33
2018-02-15T00:10:02.144Z,27.73
2018-02-15T00:12:29.638Z,29.20
2018-02-15T00:14:57.143Z,32.83
2018-02-15T00:17:24.630Z,36.90
2018-02-15T00:19:52.343Z,31.33
2018-02-15T00:22:19.874Z,32.23
2018-02-15T00:24:47.374Z,29.40
2018-02-15T00:27:14.880Z,35.83
2018-02-15T00:29:42.397Z,32.23
2018-02-15T00:32:09.888Z,35.47
2018-02-15T00:34:37.367Z,33.80
2018-02-15T00:37:04.877Z,27.80
2018-02-15T00:39:32.382Z,35.97
2018-02-15T00:41:59.890Z,32.40
2018-02-15T00:44:27.369Z,31.23
2018-02-15T00:46:54.862Z,32.63
2018-02-15T00:49:22.358Z,33.13
2018-02-15T00:51:49.852Z,31.53
2018-02-15T00:54:17.335Z,33.90
2018-02-15T00:56:44.844Z,35.70
2018-02-15T00:59:12.322Z,32.00
2018-02-15T01:01:39.804Z,37.23
2018-02-15T01:04:07.302Z,34.17
2018-02-15T01:06:34.788Z,27.97
2018-02-15T01:09:02.305Z,28.10
2018-02-15T01:11:29.793Z,29.10
2018-02-15T01:13:57.292Z,32.93
2018-02-15T01:16:26.789Z,30.83
2018-02-15T01:18:54.283Z,30.33
2018-02-15T01:21:21.764Z,30.77
2018-02-15T01:23:49.264Z,34.00
2018-02-15T01:26:16.768Z,29.90
2018-02-15T01:28:44.264Z,30.37
2018-02-15T01:31:11.736Z,29.57
2018-02-15T01:33:39.237Z,36.37
2018-02-15T01:36:06.724Z,31.63
2018-02-15T01:38:34.226Z,28.20
2018-02-15T01:43:35.429Z,33.57
2018-02-15T01:46:02.901Z,31.97
2018-02-15T01:48:30.376Z,30.13
2018-02-15T01:50:57.885Z,34.87
2018-02-15T01:53:25.380Z,31.07
2018-02-15T01:55:52.876Z,27.10
2018-02-15T01:58:20.369Z,34.57
2018-02-15T02:00:47.876Z,37.20
2018-02-15T02:03:15.385Z,29.83
2018-02-15T02:05:42.874Z,29.47
2018-02-15T02:08:10.366Z,33.83
2018-02-15T02:10:37.837Z,30.77
2018-02-15T02:13:05.326Z,29.80
2018-02-15T02:15:32.840Z,30.67
2018-02-15T02:18:00.329Z,28.47
2018-02-15T02:20:27.821Z,31.00
2018-02-15T02:22:55.425Z,33.23
2018-02-15T02:25:22.904Z,32.43
2018-02-15T02:27:50.402Z,40.67
2018-02-15T02:30:18.324Z,30.07
2018-02-15T02:32:46.794Z,32.60
2018-02-15T02:35:14.293Z,28.80
2018-02-15T02:37:41.806Z,30.37
2018-02-15T02:40:09.299Z,30.43
2018-02-15T02:42:36.796Z,34.43
2018-02-15T02:45:04.309Z,33.27
2018-02-15T02:47:31.796Z,32.23
2018-02-15T02:49:59.308Z,37.30
2018-02-15T02:52:26.794Z,50.33
2018-02-15T02:54:54.274Z,35.60
2018-02-15T02:57:21.777Z,32.20
2018-02-15T02:59:49.257Z,35.93
2018-02-15T03:02:16.780Z,34.33
2018-02-15T03:04:44.285Z,33.97
2018-02-15T03:07:11.794Z,30.77
2018-02-15T03:09:39.301Z,32.27
2018-02-15T03:12:06.790Z,31.70
2018-02-15T03:14:34.350Z,39.63
2018-02-15T03:17:01.842Z,30.83
2018-02-15T03:19:29.328Z,30.13
2018-02-15T03:21:56.830Z,29.63
2018-02-15T03:24:24.328Z,34.73
2018-02-15T03:26:51.811Z,29.40
2018-02-15T03:29:19.303Z,30.53
2018-02-15T03:31:46.792Z,32.70
2018-02-15T03:34:14.284Z,31.20
2018-02-15T03:36:41.783Z,33.80
2018-02-15T03:39:09.284Z,32.73
2018-02-15T03:41:36.774Z,34.03
2018-02-15T03:44:04.276Z,29.07
2018-02-15T03:46:31.768Z,28.40
2018-02-15T03:48:59.295Z,30.67
2018-02-15T03:51:26.815Z,31.53
2018-02-15T03:53:54.315Z,33.20
2018-02-15T03:56:21.816Z,31.83
2018-02-15T03:58:49.317Z,31.53
2018-02-15T04:01:16.809Z,32.10
2018-02-15T04:03:44.329Z,30.10
2018-02-15T04:06:11.824Z,29.97
2018-02-15T04:08:39.301Z,30.00
2018-02-15T04:11:06.825Z,29.90
2018-02-15T04:13:34.317Z,32.67
2018-02-15T04:16:01.831Z,32.63
2018-02-15T04:18:29.301Z,31.17
2018-02-15T04:20:56.793Z,31.60
2018-02-15T04:23:24.306Z,33.40
2018-02-15T04:25:51.781Z,32.27
2018-02-15T04:28:19.274Z,29.10
2018-02-15T04:30:46.776Z,31.30
2018-02-15T04:33:14.325Z,33.60
2018-02-15T04:35:41.808Z,31.80
2018-02-15T04:38:09.312Z,28.93
2018-02-15T04:40:36.812Z,23.27
2018-02-15T04:43:04.300Z,31.50
2018-02-15T04:45:31.789Z,30.77
2018-02-15T04:47:59.349Z,32.90
2018-02-15T04:50:26.818Z,34.73
2018-02-15T04:52:54.305Z,35.57
2018-02-15T04:55:21.800Z,33.23
2018-02-15T04:57:49.344Z,35.07
2018-02-15T05:00:16.866Z,34.70
2018-02-15T05:02:44.364Z,33.23
2018-02-15T05:05:11.884Z,32.07
2018-02-15T05:07:39.361Z,35.87
2018-02-15T05:10:06.864Z,36.77
2018-02-15T05:12:34.336Z,28.57
2018-02-15T05:15:01.860Z,32.37
2018-02-15T05:17:29.367Z,37.03
2018-02-15T05:19:56.835Z,33.27
2018-02-15T05:22:24.351Z,32.30
2018-02-15T05:24:51.830Z,30.97
2018-02-15T05:27:19.332Z,32.43
2018-02-15T05:29:48.396Z,28.07
2018-02-15T05:32:15.857Z,30.70
2018-02-15T05:34:43.338Z,29.80
2018-02-15T05:37:10.813Z,30.40
2018-02-15T05:39:38.309Z,34.13
2018-02-15T05:42:05.793Z,34.30
2018-02-15T05:44:33.262Z,29.03
2018-02-15T05:47:00.726Z,32.73
2018-02-15T05:49:28.232Z,30.70
2018-02-15T05:51:55.708Z,29.90
2018-02-15T05:54:23.194Z,35.13
2018-02-15T05:56:50.692Z,31.07
2018-02-15T05:59:18.680Z,34.37
2018-02-15T06:01:46.184Z,28.60
2018-02-15T06:04:13.689Z,32.27
2018-02-15T06:06:41.202Z,31.93
2018-02-15T06:09:08.737Z,33.40
2018-02-15T06:11:36.272Z,31.60
2018-02-15T06:14:03.788Z,34.53
2018-02-15T06:16:31.312Z,29.40
2018-02-15T06:18:58.815Z,30.93
2018-02-15T06:21:26.324Z,32.10
2018-02-15T06:23:53.846Z,32.17
2018-02-15T06:26:21.347Z,33.87
2018-02-15T06:28:48.876Z,29.10
2018-02-15T06:31:16.382Z,34.07
2018-02-15T06:33:43.949Z,25.47
2018-02-15T06:36:11.489Z,31.37
2018-02-15T06:38:39.030Z,29.77
2018-02-15T06:41:06.534Z,27.30
2018-02-15T06:43:34.069Z,38.07
2018-02-15T06:46:01.605Z,31.70
2018-02-15T06:48:29.197Z,27.60
2018-02-15T06:50:56.731Z,24.83
2018-02-15T06:53:24.249Z,30.20
2018-02-15T06:55:51.758Z,30.93
2018-02-15T06:58:19.265Z,30.30
2018-02-15T07:00:46.801Z,26.43
2018-02-15T07:03:14.332Z,29.03
2018-02-15T07:05:41.855Z,29.90
2018-02-15T07:08:09.374Z,30.20
2018-02-15T07:10:36.910Z,28.13
2018-02-15T07:13:05.529Z,29.80
2018-02-15T07:15:33.038Z,32.30
2018-02-15T07:18:00.573Z,31.97
2018-02-15T07:20:28.094Z,29.67
2018-02-15T07:22:55.606Z,26.70
2018-02-15T07:25:23.128Z,27.53
2018-02-15T07:27:50.781Z,27.87
2018-02-15T07:30:18.305Z,30.07
2018-02-15T07:32:45.819Z,30.50
2018-02-15T07:35:13.361Z,28.03
2018-02-15T07:37:40.940Z,28.97
2018-02-15T07:40:08.468Z,34.17
2018-02-15T07:42:36.015Z,28.53
2018-02-15T07:45:04.022Z,27.87
2018-02-15T07:47:31.522Z,28.77
2018-02-15T07:49:59.048Z,27.23
2018-02-15T07:52:27.128Z,29.77
2018-02-15T07:54:54.635Z,29.57
2018-02-15T07:57:22.170Z,33.20
2018-02-15T07:59:49.711Z,29.53
2018-02-15T08:02:17.234Z,36.07
2018-02-15T08:04:44.761Z,28.20
2018-02-15T08:07:12.274Z,32.23
2018-02-15T08:09:39.766Z,30.73
2018-02-15T08:12:07.292Z,31.00
2018-02-15T08:14:34.853Z,31.80
2018-02-15T08:17:02.364Z,29.17
2018-02-15T08:19:29.889Z,30.87
2018-02-15T08:21:57.443Z,29.73
2018-02-15T08:24:25.080Z,29.40
2018-02-15T08:26:52.600Z,28.47
2018-02-15T08:29:20.115Z,30.70
2018-02-15T08:31:47.660Z,30.97
2018-02-15T08:34:15.201Z,34.93
2018-02-15T08:36:42.734Z,28.03
2018-02-15T08:39:10.271Z,28.90
2018-02-15T08:41:37.797Z,31.60
2018-02-15T08:44:05.320Z,28.27
2018-02-15T08:46:33.018Z,32.83
2018-02-15T08:49:00.526Z,31.50
2018-02-15T08:51:28.082Z,32.00
2018-02-15T08:53:55.985Z,30.13
2018-02-15T08:56:23.511Z,29.37
2018-02-15T08:58:51.057Z,30.43
2018-02-15T09:01:18.588Z,31.77
2018-02-15T09:03:46.100Z,32.73
2018-02-15T09:06:13.637Z,29.80
2018-02-15T09:08:41.167Z,33.93
2018-02-15T09:11:08.736Z,34.17
2018-02-15T09:13:36.295Z,32.17
2018-02-15T09:16:03.808Z,32.50
2018-02-15T09:18:31.374Z,29.23
2018-02-15T09:20:58.875Z,34.23
2018-02-15T09:23:26.416Z,32.23
2018-02-15T09:25:53.927Z,31.87
2018-02-15T09:28:21.470Z,31.27
2018-02-15T09:30:48.996Z,31.33
2018-02-15T09:33:16.751Z,31.73
2018-02-15T09:35:44.283Z,35.33
2018-02-15T09:38:11.819Z,28.70
2018-02-15T09:40:39.349Z,29.13
2018-02-15T09:43:06.886Z,29.57
2018-02-15T09:45:34.453Z,31.87
2018-02-15T09:48:01.989Z,28.07
2018-02-15T09:50:29.489Z,36.63
2018-02-15T09:52:57.026Z,28.93
2018-02-15T09:55:24.536Z,31.23
2018-02-15T09:57:52.040Z,28.43
2018-02-15T10:00:19.572Z,33.87
2018-02-15T10:02:47.093Z,33.07
2018-02-15T10:05:14.654Z,33.03
2018-02-15T10:07:42.162Z,29.30
2018-02-15T10:10:09.669Z,34.90
2018-02-15T10:12:37.197Z,33.90
2018-02-15T10:15:05.461Z,30.83
2018-02-15T10:17:32.990Z,33.50
2018-02-15T10:20:00.526Z,33.47
2018-02-15T10:22:28.032Z,30.57
2018-02-15T10:24:55.534Z,32.03
2018-02-15T10:27:23.061Z,31.73
2018-02-15T10:29:50.588Z,32.10
2018-02-15T10:32:18.114Z,32.10
2018-02-15T10:34:45.622Z,33.13
2018-02-15T10:37:14.381Z,33.13
2018-02-15T10:39:41.887Z,35.53
2018-02-15T10:42:10.013Z,33.93
2018-02-15T10:44:37.519Z,32.47
2018-02-15T10:47:05.047Z,38.03
2018-02-15T10:49:32.594Z,37.10
2018-02-15T10:52:00.142Z,29.70
2018-02-15T10:54:27.726Z,32.03
2018-02-15T10:56:55.273Z,32.50
2018-02-15T10:59:22.833Z,34.50
2018-02-15T11:01:55.965Z,36.83
2018-02-15T11:04:29.075Z,31.40
2018-02-15T11:06:56.583Z,28.70
2018-02-15T11:09:24.086Z,32.73
2018-02-15T11:11:51.605Z,31.90
2018-02-15T11:14:19.107Z,32.93
2018-02-15T11:16:46.639Z,27.77
2018-02-15T11:19:14.148Z,32.93
2018-02-15T11:21:41.676Z,29.03
2018-02-15T11:24:09.679Z,27.67
2018-02-15T11:26:37.190Z,32.20
2018-02-15T11:29:04.738Z,29.43
2018-02-15T11:31:32.252Z,25.07
2018-02-15T11:33:59.766Z,28.33
2018-02-15T11:36:27.313Z,28.60
2018-02-15T11:38:54.860Z,26.10
2018-02-15T11:41:22.405Z,27.60
2018-02-15T11:43:49.906Z,24.70
2018-02-15T11:46:17.453Z,28.07
2018-02-15T11:48:45.117Z,26.00
2018-02-15T11:51:12.780Z,27.57
2018-02-15T11:53:40.443Z,26.63
2018-02-15T11:56:08.013Z,23.23
2018-02-15T11:58:35.534Z,26.77
2018-02-15T12:01:03.090Z,26.90
2018-02-15T12:03:30.649Z,29.63
2018-02-15T12:05:58.240Z,30.20
2018-02-15T12:08:25.799Z,31.20
2018-02-15T12:10:53.313Z,23.37
2018-02-15T12:13:20.889Z,29.97
2018-02-15T12:15:48.417Z,24.77
2018-02-15T12:18:16.026Z,23.23
2018-02-15T12:20:44.795Z,26.50
2018-02-15T12:23:12.600Z,24.27
2018-02-15T12:25:40.176Z,26.03
2018-02-15T12:28:07.687Z,22.87
2018-02-15T12:30:35.265Z,21.60
2018-02-15T12:33:02.795Z,22.03
2018-02-15T12:35:30.322Z,19.33
2018-02-15T12:37:57.864Z,16.63
2018-02-15T12:40:25.693Z,18.63
2018-02-15T12:42:53.228Z,15.70
2018-02-15T12:45:20.774Z,16.77
2018-02-15T12:47:48.312Z,18.97
2018-02-15T12:50:15.843Z,19.80
2018-02-15T12:52:43.358Z,21.07
2018-02-15T12:55:10.895Z,18.90
2018-02-15T12:57:38.418Z,18.23
2018-02-15T13:00:05.967Z,17.73
2018-02-15T13:02:33.507Z,19.43
2018-02-15T13:05:01.082Z,17.10
2018-02-15T13:07:28.728Z,17.30
2018-02-15T13:09:56.258Z,19.50
2018-02-15T13:12:35.461Z,22.43
2018-02-15T13:15:03.054Z,18.70
2018-02-15T13:17:30.556Z,23.97
2018-02-15T13:20:18.780Z,16.10
2018-02-15T13:22:49.169Z,21.13
2018-02-15T13:25:16.680Z,20.47
2018-02-15T13:27:55.863Z,19.10
2018-02-15T13:30:23.362Z,21.17
2018-02-15T13:32:50.879Z,18.23
2018-02-15T13:35:18.408Z,19.87
2018-02-15T13:37:45.938Z,26.37
2018-02-15T13:40:13.456Z,18.97
2018-02-15T13:42:40.979Z,20.33
2018-02-15T13:45:08.501Z,22.00
2018-02-15T13:47:36.029Z,26.27
2018-02-15T13:50:03.543Z,20.53
2018-02-15T13:52:32.378Z,19.43
2018-02-15T13:55:00.749Z,20.63
2018-02-15T13:57:28.289Z,19.33
2018-02-15T13:59:55.824Z,27.33
2018-02-15T14:02:23.371Z,23.80
2018-02-15T14:04:50.901Z,19.57
2018-02-15T14:07:18.415Z,21.67
2018-02-15T14:09:45.951Z,20.60
2018-02-15T14:12:13.664Z,26.40
2018-02-15T14:14:41.186Z,21.33
2018-02-15T14:17:08.717Z,21.50
2018-02-15T14:19:36.246Z,23.90
2018-02-15T14:22:03.755Z,22.60
2018-02-15T14:24:31.470Z,21.13
2018-02-15T14:26:59.019Z,23.17
2018-02-15T14:29:26.576Z,25.73
2018-02-15T14:31:54.093Z,23.90
2018-02-15T14:34:21.663Z,26.40
2018-02-15T14:36:49.238Z,24.10
2018-02-15T14:39:16.787Z,20.67
2018-02-15T14:41:44.297Z,25.53
2018-02-15T14:44:11.857Z,27.13
2018-02-15T14:46:39.392Z,27.37
2018-02-15T14:49:06.912Z,21.77
2018-02-15T14:51:34.455Z,29.63
2018-02-15T14:54:01.981Z,25.17
2018-02-15T14:56:29.492Z,26.87
2018-02-15T14:58:56.995Z,29.70
2018-02-15T15:01:24.536Z,29.20
2018-02-15T15:03:52.066Z,32.00
2018-02-15T15:06:19.573Z,26.63
2018-02-15T15:08:47.117Z,33.40
2018-02-15T15:11:14.639Z,28.00
2018-02-15T15:13:42.157Z,32.27
2018-02-15T15:16:09.691Z,27.80
2018-02-15T15:18:37.252Z,25.90
2018-02-15T15:21:05.668Z,30.37
2018-02-15T15:23:33.208Z,30.53
2018-02-15T15:26:00.716Z,30.37
2018-02-15T15:28:29.200Z,30.77
2018-02-15T15:30:56.720Z,29.00
2018-02-15T15:33:24.262Z,27.27
2018-02-15T15:35:51.810Z,28.03
2018-02-15T15:38:19.424Z,29.57
2018-02-15T15:40:47.182Z,24.80
2018-02-15T15:43:14.858Z,26.23
2018-02-15T15:45:42.397Z,30.43
2018-02-15T15:48:09.947Z,29.30
2018-02-15T15:50:37.485Z,29.90
2018-02-15T15:53:05.022Z,27.73
2018-02-15T15:55:32.550Z,28.70
2018-02-15T15:58:00.114Z,24.77
2018-02-15T16:00:27.674Z,25.80
2018-02-15T16:02:55.226Z,35.10
2018-02-15T16:05:22.749Z,27.77
2018-02-15T16:07:50.293Z,26.13
2018-02-15T16:10:17.831Z,25.50
2018-02-15T16:12:45.363Z,29.50
2018-02-15T16:15:12.875Z,25.83
2018-02-15T16:17:40.417Z,25.30
2018-02-15T16:20:07.952Z,30.07
2018-02-15T16:22:35.489Z,25.27
2018-02-15T16:25:03.072Z,26.87
2018-02-15T16:27:30.597Z,25.10
2018-02-15T16:29:58.121Z,28.67
2018-02-15T16:32:25.654Z,25.30
2018-02-15T16:34:53.195Z,26.97
2018-02-15T16:37:20.733Z,27.30
2018-02-15T16:39:48.260Z,28.27
2018-02-15T16:42:15.808Z,26.13
2018-02-15T16:44:43.344Z,24.47
2018-02-15T16:47:10.857Z,28.00
2018-02-15T16:49:38.402Z,25.27
2018-02-15T16:52:05.922Z,25.93
2018-02-15T16:54:33.461Z,27.87
2018-02-15T16:57:00.978Z,27.73
2018-02-15T16:59:28.525Z,27.67
2018-02-15T17:01:56.074Z,27.50
2018-02-15T17:04:23.601Z,33.07
2018-02-15T17:06:51.118Z,28.17
2018-02-15T17:09:18.648Z,30.83
2018-02-15T17:11:46.175Z,29.20
2018-02-15T17:14:13.679Z,29.90
2018-02-15T17:16:41.306Z,31.77
2018-02-15T17:19:08.861Z,32.87
2018-02-15T17:21:36.385Z,27.00
2018-02-15T17:24:03.950Z,33.73
2018-02-15T17:26:31.570Z,32.87
2018-02-15T17:28:59.112Z,34.77
2018-02-15T17:31:26.651Z,32.60
2018-02-15T17:33:54.232Z,30.43
2018-02-15T17:36:21.806Z,29.77
2018-02-15T17:38:49.347Z,30.60
2018-02-15T17:41:16.877Z,30.17
2018-02-15T17:43:44.413Z,33.37
2018-02-15T17:46:11.948Z,32.80
2018-02-15T17:48:39.475Z,32.97
2018-02-15T17:51:06.999Z,30.43
2018-02-15T17:53:36.501Z,32.77
2018-02-15T17:56:04.055Z,29.83
2018-02-15T17:58:31.575Z,28.03
2018-02-15T18:00:59.120Z,30.80
2018-02-15T18:03:26.694Z,32.43
2018-02-15T18:05:54.293Z,37.90
2018-02-15T18:08:21.921Z,32.10
2018-02-15T18:10:49.451Z,32.67
2018-02-15T18:13:16.980Z,31.57
2018-02-15T18:15:44.496Z,36.63
2018-02-15T18:18:12.027Z,32.47
2018-02-15T18:20:39.534Z,31.17
2018-02-15T18:23:07.061Z,31.13
2018-02-15T18:25:34.567Z,35.73
2018-02-15T18:28:02.101Z,34.13
2018-02-15T18:30:30.883Z,32.03
2018-02-15T18:32:58.423Z,33.00
2018-02-15T18:35:26.007Z,31.47
2018-02-15T18:37:53.553Z,36.37
2018-02-15T18:40:21.107Z,34.83
2018-02-15T18:42:48.750Z,29.93
2018-02-15T18:45:16.422Z,35.67
2018-02-15T18:47:43.981Z,36.90
2018-02-15T18:50:11.540Z,38.17
2018-02-15T18:52:39.073Z,33.57
2018-02-15T18:55:06.605Z,39.70
2018-02-15T18:57:34.122Z,36.83
2018-02-15T19:00:01.660Z,41.70
2018-02-15T19:02:29.200Z,37.30
2018-02-15T19:04:56.740Z,41.43
2018-02-15T19:07:24.306Z,41.67
2018-02-15T19:09:51.814Z,40.97
2018-02-15T19:12:19.338Z,40.07
2018-02-15T19:14:46.885Z,37.80
2018-02-15T19:17:14.404Z,36.47
2018-02-15T19:19:41.929Z,39.00
2018-02-15T19:22:09.464Z,36.00
2018-02-15T19:24:37.014Z,38.77
2018-02-15T19:27:04.576Z,39.57
2018-02-15T19:29:32.165Z,40.43
2018-02-15T19:31:59.709Z,36.27
2018-02-15T19:34:27.239Z,36.33
2018-02-15T19:36:54.801Z,35.90
2018-02-15T19:39:22.326Z,36.33
2018-02-15T19:41:49.874Z,37.70
2018-02-15T19:44:17.383Z,34.77
2018-02-15T19:46:44.933Z,35.20
2018-02-15T19:49:12.461Z,37.30
2018-02-15T19:51:39.989Z,38.07
2018-02-15T19:54:07.550Z,41.40
2018-02-15T19:56:35.077Z,36.93
2018-02-15T19:59:02.591Z,37.70
2018-02-15T20:01:30.130Z,42.17
2018-02-15T20:03:57.657Z,42.60
2018-02-15T20:06:25.245Z,34.23
2018-02-15T20:08:52.807Z,38.20
2018-02-15T20:11:20.337Z,38.30
2018-02-15T20:13:47.894Z,41.77
2018-02-15T20:16:15.411Z,37.43
2018-02-15T20:18:42.941Z,37.90
2018-02-15T20:21:10.464Z,37.13
2018-02-15T20:23:38.001Z,38.43
2018-02-15T20:26:11.037Z,38.87
2018-02-15T20:28:38.614Z,39.83
2018-02-15T20:31:06.129Z,41.97
2018-02-15T20:33:33.647Z,38.83
2018-02-15T20:36:01.217Z,43.20
2018-02-15T20:38:34.398Z,40.50
2018-02-15T20:41:01.930Z,44.53
2018-02-15T20:43:29.963Z,44.40
2018-02-15T20:45:57.516Z,41.03
2018-02-15T20:48:25.042Z,44.33
2018-02-15T20:50:58.106Z,45.70
2018-02-15T20:53:31.183Z,45.57
2018-02-15T20:55:58.701Z,44.50
2018-02-15T20:58:26.226Z,47.23
2018-02-15T21:00:53.747Z,43.37
2018-02-15T21:03:21.289Z,44.50
2018-02-15T21:05:48.809Z,43.33
2018-02-15T21:08:16.354Z,48.07
2018-02-15T21:10:44.768Z,44.07
2018-02-15T21:13:12.298Z,48.60
2018-02-15T21:15:39.814Z,44.13
2018-02-15T21:18:07.330Z,47.07
2018-02-15T21:20:34.911Z,46.10
2018-02-15T21:23:02.476Z,48.77
2018-02-15T21:25:30.042Z,50.23
2018-02-15T21:27:57.563Z,53.33
2018-02-15T21:30:25.172Z,52.90
2018-02-15T21:32:52.705Z,52.00
2018-02-15T21:35:20.237Z,49.63
2018-02-15T21:37:47.770Z,45.27
2018-02-15T21:40:15.300Z,50.87
2018-02-15T21:42:42.873Z,48.50
2018-02-15T21:45:10.397Z,50.50
2018-02-15T21:47:37.914Z,50.27
2018-02-15T21:50:05.468Z,47.80
2018-02-15T21:52:33.001Z,56.10
2018-02-15T21:55:00.562Z,46.03
2018-02-15T21:57:28.092Z,52.83
2018-02-15T21:59:55.633Z,51.53
2018-02-15T22:02:23.155Z,52.67
2018-02-15T22:04:50.667Z,49.57
2018-02-15T22:07:18.182Z,53.47
2018-02-15T22:09:45.722Z,53.97
2018-02-15T22:12:13.286Z,48.80
2018-02-15T22:14:40.823Z,49.60
2018-02-15T22:17:08.373Z,51.20
2018-02-15T22:19:35.906Z,47.77
2018-02-15T22:22:03.426Z,51.47
2018-02-15T22:24:30.914Z,52.83
2018-02-15T22:26:58.431Z,50.10
2018-02-15T22:29:25.961Z,50.00
2018-02-15T22:31:53.452Z,53.70
2018-02-15T22:34:20.980Z,51.43
2018-02-15T22:36:48.474Z,50.17
2018-02-15T22:39:15.985Z,52.07
2018-02-15T22:41:43.472Z,51.30
2018-02-15T22:44:10.951Z,47.13
2018-02-15T22:46:38.448Z,49.60
2018-02-15T22:49:05.930Z,49.03
2018-02-15T22:51:33.427Z,58.90
2018-02-15T22:54:00.926Z,50.67
2018-02-15T22:56:28.412Z,51.70
2018-02-15T22:58:55.988Z,50.73
2018-02-15T23:01:23.466Z,55.27
2018-02-15T23:03:50.982Z,56.70
2018-02-15T23:06:18.502Z,49.70
2018-02-15T23:08:45.978Z,51.30
2018-02-15T23:11:13.471Z,49.93
2018-02-15T23:13:40.968Z,55.50
2018-02-15T23:16:08.469Z,57.47
2018-02-15T23:18:36.005Z,53.93
2018-02-15T23:21:03.506Z,48.27
2018-02-15T23:23:31.049Z,53.30
2018-02-15T23:25:58.531Z,53.87
2018-02-15T23:28:26.034Z,52.47
2018-02-15T23:30:53.548Z,60.80
2018-02-15T23:33:21.059Z,55.83
2018-02-15T23:35:48.572Z,53.10
2018-02-15T23:38:16.061Z,55.80
2018-02-15T23:40:43.574Z,53.60
2018-02-15T23:43:11.092Z,53.40
2018-02-15T23:45:38.587Z,58.77
2018-02-15T23:48:06.104Z,58.10
2018-02-15T23:50:33.605Z,60.00
2018-02-15T23:53:01.135Z,56.97
2018-02-15T23:55:28.641Z,52.83
2018-02-15T23:57:56.140Z,57.23
